AEN952 EDDH-LLBG
Flight info
| Callsign | AEN952 |
|---|---|
| Flight time | N/A |
| Altitude | 35000 |
| Route | AMLUH2C AMLUH M852 DENIX DCT ZUCKA DCT ARMUT T703 ARBAX T108 OSTES T700 BIBAG L605 ESEGA DCT VELOM DCT GOTAR DCT BABIT DCT OKLOP DCT NISVA Y505 NIKTI UN127 ERESO UN127 IMR UG80 BANRO UN128 RDS UL609 ALKIS L609 ZUKKO |
| Aircraft | A320/M-SDE3FGHIRWY/LB1 |
Departure
| Time | N/A |
|---|---|
| Airport | Hamburg Helmut Schmidt Airport (EDDH) |
Arrival
| Time | 2026-05-01 09:40 |
|---|---|
| Airport | Ben Gurion International Airport (LLBG) |
| Time | Latitude | Longitude | Altitude | Speed | Heading |
|---|---|---|---|---|---|
| 2026-05-01 07:23 | 44.28589 | 21.19637 | 35346 ft | 467 kts | 135° |
| 2026-05-01 07:24 | 44.21502 | 21.28997 | 35349 ft | 468 kts | 135° |
| 2026-05-01 07:24 | 44.16754 | 21.35196 | 35350 ft | 468 kts | 136° |
| 2026-05-01 07:25 | 44.11912 | 21.41253 | 35347 ft | 468 kts | 137° |
| 2026-05-01 07:25 | 44.07017 | 21.47243 | 35350 ft | 469 kts | 137° |
| 2026-05-01 07:26 | 44.02132 | 21.53237 | 35342 ft | 469 kts | 137° |
| 2026-05-01 07:26 | 43.97259 | 21.59249 | 35342 ft | 469 kts | 137° |
| 2026-05-01 07:27 | 43.92381 | 21.65262 | 35340 ft | 469 kts | 138° |
| 2026-05-01 07:27 | 43.87495 | 21.71270 | 35347 ft | 469 kts | 138° |
| 2026-05-01 07:28 | 43.82607 | 21.77263 | 35346 ft | 469 kts | 138° |
| 2026-05-01 07:28 | 43.77710 | 21.83248 | 35349 ft | 470 kts | 138° |
| 2026-05-01 07:29 | 43.72809 | 21.89231 | 35348 ft | 470 kts | 138° |
| 2026-05-01 07:29 | 43.67909 | 21.95206 | 35337 ft | 470 kts | 138° |
| 2026-05-01 07:30 | 43.62997 | 22.01176 | 35340 ft | 471 kts | 139° |
| 2026-05-01 07:30 | 43.58076 | 22.07144 | 35338 ft | 471 kts | 139° |
| 2026-05-01 07:31 | 43.53151 | 22.13102 | 35344 ft | 471 kts | 139° |
| 2026-05-01 07:32 | 43.40811 | 22.27970 | 35333 ft | 472 kts | 139° |
| 2026-05-01 07:33 | 43.33390 | 22.36866 | 35331 ft | 472 kts | 139° |
| 2026-05-01 07:33 | 43.25951 | 22.45755 | 35321 ft | 473 kts | 139° |
| 2026-05-01 07:34 | 43.18501 | 22.54627 | 35318 ft | 473 kts | 140° |
| 2026-05-01 07:35 | 43.13526 | 22.60533 | 35310 ft | 473 kts | 140° |
| 2026-05-01 07:35 | 43.08542 | 22.66435 | 35313 ft | 474 kts | 140° |
| 2026-05-01 07:36 | 43.03558 | 22.72333 | 35309 ft | 474 kts | 140° |
| 2026-05-01 07:36 | 42.98565 | 22.78220 | 35313 ft | 474 kts | 140° |
| 2026-05-01 07:37 | 42.90823 | 22.86617 | 35310 ft | 474 kts | 145° |
| 2026-05-01 07:37 | 42.85487 | 22.91887 | 35308 ft | 474 kts | 145° |
| 2026-05-01 07:38 | 42.80161 | 22.97188 | 35300 ft | 474 kts | 144° |
| 2026-05-01 07:39 | 42.72238 | 23.05279 | 35297 ft | 475 kts | 144° |
| 2026-05-01 07:39 | 42.64271 | 23.13389 | 35307 ft | 475 kts | 145° |
| 2026-05-01 07:40 | 42.58961 | 23.18734 | 35303 ft | 475 kts | 145° |
| 2026-05-01 07:40 | 42.53654 | 23.24083 | 35303 ft | 475 kts | 145° |
| 2026-05-01 07:41 | 42.48346 | 23.29438 | 35297 ft | 476 kts | 145° |
| 2026-05-01 07:42 | 42.40375 | 23.37438 | 35288 ft | 476 kts | 145° |
| 2026-05-01 07:42 | 42.35054 | 23.42769 | 35284 ft | 476 kts | 146° |
| 2026-05-01 07:43 | 42.29728 | 23.48089 | 35282 ft | 476 kts | 146° |
| 2026-05-01 07:43 | 42.21448 | 23.55457 | 35281 ft | 475 kts | 151° |
| 2026-05-01 07:44 | 42.10213 | 23.64873 | 35280 ft | 476 kts | 150° |
| 2026-05-01 07:45 | 42.04636 | 23.69682 | 35275 ft | 476 kts | 150° |
| 2026-05-01 07:45 | 41.99057 | 23.74496 | 35280 ft | 477 kts | 150° |
| 2026-05-01 07:46 | 41.93463 | 23.79289 | 35284 ft | 477 kts | 150° |
| 2026-05-01 07:47 | 41.85051 | 23.86437 | 35282 ft | 477 kts | 150° |
| 2026-05-01 07:47 | 41.79437 | 23.91201 | 35272 ft | 477 kts | 150° |
| 2026-05-01 07:48 | 41.71013 | 23.98329 | 35273 ft | 478 kts | 150° |
| 2026-05-01 07:48 | 41.65394 | 24.03084 | 35268 ft | 478 kts | 150° |
| 2026-05-01 07:49 | 41.56962 | 24.10194 | 35264 ft | 478 kts | 151° |
| 2026-05-01 07:50 | 41.51350 | 24.14972 | 35258 ft | 479 kts | 149° |
| 2026-05-01 07:50 | 41.43073 | 24.22445 | 35252 ft | 479 kts | 149° |
| 2026-05-01 07:51 | 41.37554 | 24.27427 | 35246 ft | 479 kts | 149° |
| 2026-05-01 07:52 | 41.29245 | 24.34819 | 35241 ft | 479 kts | 150° |
| 2026-05-01 07:52 | 41.23694 | 24.39719 | 35238 ft | 479 kts | 150° |
| 2026-05-01 07:53 | 41.15067 | 24.46268 | 35232 ft | 474 kts | 158° |
| 2026-05-01 07:53 | 41.09122 | 24.50070 | 35230 ft | 475 kts | 158° |
| 2026-05-01 07:55 | 40.94251 | 24.59569 | 35221 ft | 475 kts | 159° |
| 2026-05-01 07:56 | 40.79367 | 24.69020 | 35222 ft | 475 kts | 159° |
| 2026-05-01 07:57 | 40.71393 | 24.74074 | 35227 ft | 475 kts | 159° |
| 2026-05-01 07:58 | 40.59461 | 24.81630 | 35237 ft | 476 kts | 159° |
| 2026-05-01 07:59 | 40.47515 | 24.89149 | 35236 ft | 476 kts | 160° |
| 2026-05-01 08:00 | 40.29563 | 25.00388 | 35226 ft | 477 kts | 160° |
| 2026-05-01 08:01 | 40.17576 | 25.07857 | 35214 ft | 478 kts | 160° |
| 2026-05-01 08:02 | 40.08569 | 25.13445 | 35203 ft | 478 kts | 160° |
| 2026-05-01 08:03 | 39.99551 | 25.19028 | 35192 ft | 478 kts | 161° |
| 2026-05-01 08:03 | 39.90725 | 25.25184 | 35186 ft | 488 kts | 147° |
| 2026-05-01 08:04 | 39.80408 | 25.36841 | 35181 ft | 492 kts | 144° |
| 2026-05-01 08:05 | 39.72663 | 25.45615 | 35325 ft | 493 kts | 144° |
| 2026-05-01 08:05 | 39.70082 | 25.48540 | 35583 ft | 492 kts | 144° |
| 2026-05-01 08:06 | 39.64928 | 25.54358 | 36022 ft | 491 kts | 144° |
| 2026-05-01 08:06 | 39.59771 | 25.60154 | 36420 ft | 490 kts | 144° |
| 2026-05-01 08:07 | 39.54616 | 25.65946 | 36802 ft | 490 kts | 144° |
| 2026-05-01 08:07 | 39.49466 | 25.71729 | 37152 ft | 490 kts | 144° |
| 2026-05-01 08:08 | 39.46890 | 25.74614 | 37171 ft | 490 kts | 144° |
| 2026-05-01 08:09 | 39.36578 | 25.86129 | 37156 ft | 489 kts | 144° |
| 2026-05-01 08:09 | 39.31421 | 25.91870 | 37147 ft | 489 kts | 144° |
| 2026-05-01 08:10 | 39.21025 | 26.03198 | 37142 ft | 489 kts | 146° |
| 2026-05-01 08:11 | 39.10529 | 26.14369 | 37137 ft | 490 kts | 146° |
| 2026-05-01 08:12 | 39.02666 | 26.22780 | 37123 ft | 490 kts | 146° |
| 2026-05-01 08:13 | 38.94792 | 26.31173 | 37117 ft | 490 kts | 146° |
| 2026-05-01 08:13 | 38.86910 | 26.39538 | 37116 ft | 490 kts | 146° |
| 2026-05-01 08:14 | 38.81653 | 26.45116 | 37113 ft | 491 kts | 145° |
| 2026-05-01 08:14 | 38.76495 | 26.50864 | 37109 ft | 492 kts | 143° |
| 2026-05-01 08:15 | 38.68816 | 26.59602 | 37100 ft | 492 kts | 144° |
| 2026-05-01 08:16 | 38.63662 | 26.65366 | 37097 ft | 492 kts | 144° |
| 2026-05-01 08:16 | 38.58492 | 26.71101 | 37088 ft | 492 kts | 144° |
| 2026-05-01 08:17 | 38.53332 | 26.76840 | 37082 ft | 492 kts | 144° |
| 2026-05-01 08:17 | 38.48165 | 26.82577 | 37074 ft | 492 kts | 144° |
| 2026-05-01 08:18 | 38.42995 | 26.88296 | 37071 ft | 492 kts | 144° |
| 2026-05-01 08:19 | 38.32568 | 26.99602 | 37060 ft | 488 kts | 151° |
| 2026-05-01 08:19 | 38.26661 | 27.03543 | 37054 ft | 476 kts | 163° |
| 2026-05-01 08:20 | 38.20577 | 27.06905 | 37049 ft | 477 kts | 163° |
| 2026-05-01 08:20 | 38.14490 | 27.10290 | 37047 ft | 478 kts | 163° |
| 2026-05-01 08:21 | 38.08397 | 27.13671 | 37039 ft | 478 kts | 163° |
| 2026-05-01 08:21 | 38.02299 | 27.17034 | 37050 ft | 478 kts | 163° |
| 2026-05-01 08:22 | 37.96194 | 27.20390 | 37054 ft | 479 kts | 163° |
| 2026-05-01 08:22 | 37.90077 | 27.23753 | 37064 ft | 479 kts | 163° |
| 2026-05-01 08:23 | 37.83959 | 27.27114 | 37058 ft | 480 kts | 163° |
| 2026-05-01 08:23 | 37.77826 | 27.30473 | 37051 ft | 480 kts | 163° |
| 2026-05-01 08:24 | 37.71697 | 27.33832 | 37041 ft | 480 kts | 163° |
| 2026-05-01 08:24 | 37.65563 | 27.37182 | 37037 ft | 481 kts | 163° |
| 2026-05-01 08:25 | 37.59431 | 27.40559 | 37012 ft | 481 kts | 163° |
| 2026-05-01 08:25 | 37.53332 | 27.44070 | 37001 ft | 482 kts | 162° |
| 2026-05-01 08:26 | 37.47232 | 27.47579 | 36996 ft | 482 kts | 163° |
| 2026-05-01 08:26 | 37.41057 | 27.50854 | 36994 ft | 481 kts | 165° |
| 2026-05-01 08:27 | 37.34848 | 27.54018 | 36995 ft | 482 kts | 165° |
| 2026-05-01 08:27 | 37.28641 | 27.57222 | 36999 ft | 483 kts | 165° |
| 2026-05-01 08:28 | 37.22456 | 27.60530 | 37002 ft | 484 kts | 163° |
| 2026-05-01 08:28 | 37.16285 | 27.63927 | 37001 ft | 485 kts | 163° |
| 2026-05-01 08:29 | 37.10104 | 27.67307 | 36997 ft | 485 kts | 163° |
| 2026-05-01 08:29 | 37.03906 | 27.70646 | 37005 ft | 485 kts | 164° |
| 2026-05-01 08:30 | 36.97696 | 27.73981 | 36997 ft | 486 kts | 164° |
| 2026-05-01 08:30 | 36.91480 | 27.77319 | 36997 ft | 486 kts | 164° |
| 2026-05-01 08:31 | 36.85258 | 27.80667 | 36992 ft | 487 kts | 164° |
| 2026-05-01 08:31 | 36.79038 | 27.84009 | 36992 ft | 487 kts | 164° |
| 2026-05-01 08:32 | 36.72800 | 27.87347 | 36988 ft | 487 kts | 164° |
| 2026-05-01 08:32 | 36.66560 | 27.90656 | 36985 ft | 487 kts | 165° |
| 2026-05-01 08:33 | 36.60299 | 27.93907 | 36979 ft | 487 kts | 165° |
| 2026-05-01 08:33 | 36.54032 | 27.97142 | 36977 ft | 488 kts | 165° |
| 2026-05-01 08:34 | 36.47765 | 28.00409 | 36975 ft | 489 kts | 164° |
| 2026-05-01 08:34 | 36.41537 | 28.03866 | 36975 ft | 491 kts | 162° |
| 2026-05-01 08:35 | 36.36470 | 28.07141 | 36975 ft | 501 kts | 152° |
| 2026-05-01 08:35 | 36.31264 | 28.13015 | 36971 ft | 514 kts | 132° |
| 2026-05-01 08:36 | 36.27033 | 28.20197 | 36967 ft | 516 kts | 129° |
| 2026-05-01 08:36 | 36.22816 | 28.27461 | 36974 ft | 516 kts | 129° |
| 2026-05-01 08:37 | 36.18618 | 28.34679 | 36986 ft | 516 kts | 129° |
| 2026-05-01 08:37 | 36.14410 | 28.41886 | 36993 ft | 516 kts | 129° |
| 2026-05-01 08:38 | 36.10199 | 28.49081 | 36993 ft | 517 kts | 129° |
| 2026-05-01 08:38 | 36.05990 | 28.56281 | 37007 ft | 516 kts | 129° |
| 2026-05-01 08:39 | 36.01783 | 28.63470 | 37012 ft | 516 kts | 129° |
| 2026-05-01 08:39 | 35.97562 | 28.70641 | 37019 ft | 516 kts | 129° |
| 2026-05-01 08:40 | 35.91230 | 28.81373 | 37015 ft | 516 kts | 129° |
| 2026-05-01 08:40 | 35.87001 | 28.88513 | 37014 ft | 515 kts | 129° |
| 2026-05-01 08:41 | 35.82780 | 28.95653 | 37016 ft | 515 kts | 129° |
| 2026-05-01 08:41 | 35.78558 | 29.02786 | 37014 ft | 515 kts | 129° |
| 2026-05-01 08:42 | 35.74332 | 29.09903 | 37010 ft | 515 kts | 129° |
| 2026-05-01 08:42 | 35.70096 | 29.17005 | 37011 ft | 515 kts | 129° |
| 2026-05-01 08:43 | 35.65853 | 29.24096 | 37012 ft | 515 kts | 129° |
| 2026-05-01 08:43 | 35.61611 | 29.31183 | 37007 ft | 515 kts | 129° |
| 2026-05-01 08:44 | 35.57368 | 29.38261 | 37011 ft | 515 kts | 129° |
| 2026-05-01 08:44 | 35.53118 | 29.45336 | 37011 ft | 514 kts | 129° |
| 2026-05-01 08:45 | 35.48869 | 29.52402 | 37013 ft | 514 kts | 129° |
| 2026-05-01 08:45 | 35.44615 | 29.59455 | 37011 ft | 514 kts | 129° |
| 2026-05-01 08:46 | 35.40363 | 29.66497 | 37015 ft | 514 kts | 129° |
| 2026-05-01 08:46 | 35.36111 | 29.73526 | 37014 ft | 514 kts | 129° |
| 2026-05-01 08:47 | 35.31843 | 29.80547 | 37014 ft | 513 kts | 129° |
| 2026-05-01 08:47 | 35.27576 | 29.87550 | 37015 ft | 513 kts | 129° |
| 2026-05-01 08:48 | 35.23307 | 29.94550 | 37013 ft | 513 kts | 129° |
| 2026-05-01 08:48 | 35.19032 | 30.01536 | 37017 ft | 513 kts | 130° |
| 2026-05-01 08:49 | 35.14635 | 30.08389 | 37018 ft | 512 kts | 132° |
| 2026-05-01 08:49 | 35.10147 | 30.15134 | 37013 ft | 511 kts | 132° |
| 2026-05-01 08:50 | 35.05664 | 30.21876 | 37017 ft | 511 kts | 132° |
| 2026-05-01 08:50 | 35.01272 | 30.28563 | 37009 ft | 511 kts | 131° |
| 2026-05-01 08:51 | 34.96833 | 30.35341 | 37016 ft | 511 kts | 131° |
| 2026-05-01 08:51 | 34.92384 | 30.42101 | 37018 ft | 511 kts | 131° |
| 2026-05-01 08:52 | 34.87925 | 30.48846 | 37023 ft | 511 kts | 132° |
| 2026-05-01 08:52 | 34.83455 | 30.55572 | 37028 ft | 511 kts | 132° |
| 2026-05-01 08:53 | 34.78990 | 30.62293 | 37022 ft | 511 kts | 132° |
| 2026-05-01 08:53 | 34.74528 | 30.69012 | 37022 ft | 511 kts | 132° |
| 2026-05-01 08:54 | 34.70063 | 30.75733 | 37020 ft | 511 kts | 132° |
| 2026-05-01 08:54 | 34.65595 | 30.82438 | 37020 ft | 511 kts | 132° |
| 2026-05-01 08:55 | 34.61122 | 30.89141 | 37018 ft | 510 kts | 131° |
| 2026-05-01 08:55 | 34.56772 | 30.95958 | 37019 ft | 511 kts | 129° |
| 2026-05-01 08:56 | 34.52528 | 31.02882 | 37014 ft | 511 kts | 129° |
| 2026-05-01 08:56 | 34.48271 | 31.09775 | 37016 ft | 511 kts | 130° |
| 2026-05-01 08:57 | 34.43964 | 31.16625 | 37017 ft | 511 kts | 130° |
| 2026-05-01 08:57 | 34.39649 | 31.23455 | 37022 ft | 510 kts | 130° |
| 2026-05-01 08:58 | 34.35340 | 31.30283 | 37018 ft | 510 kts | 130° |
| 2026-05-01 08:58 | 34.31035 | 31.37108 | 37019 ft | 510 kts | 130° |
| 2026-05-01 08:59 | 34.26726 | 31.43924 | 37019 ft | 510 kts | 130° |
| 2026-05-01 08:59 | 34.22415 | 31.50725 | 37017 ft | 509 kts | 130° |
| 2026-05-01 09:00 | 34.18106 | 31.57509 | 37019 ft | 509 kts | 130° |
| 2026-05-01 09:00 | 34.13796 | 31.64297 | 37019 ft | 509 kts | 130° |
| 2026-05-01 09:01 | 34.09487 | 31.71072 | 37019 ft | 509 kts | 130° |
| 2026-05-01 09:01 | 34.05173 | 31.77830 | 37022 ft | 508 kts | 130° |
| 2026-05-01 09:02 | 34.00850 | 31.84575 | 37018 ft | 508 kts | 130° |
| 2026-05-01 09:02 | 33.96529 | 31.91307 | 37021 ft | 507 kts | 130° |
| 2026-05-01 09:03 | 33.92214 | 31.98022 | 37018 ft | 507 kts | 130° |
| 2026-05-01 09:03 | 33.87899 | 32.04732 | 37020 ft | 507 kts | 130° |
| 2026-05-01 09:04 | 33.83556 | 32.11403 | 37016 ft | 506 kts | 131° |
| 2026-05-01 09:04 | 33.79125 | 32.17971 | 37017 ft | 506 kts | 132° |
| 2026-05-01 09:05 | 33.74679 | 32.24521 | 37020 ft | 506 kts | 132° |
| 2026-05-01 09:05 | 33.70255 | 32.31089 | 37020 ft | 505 kts | 132° |
| 2026-05-01 09:06 | 33.65841 | 32.37658 | 37017 ft | 505 kts | 132° |
| 2026-05-01 09:06 | 33.61426 | 32.44203 | 37022 ft | 505 kts | 132° |
| 2026-05-01 09:07 | 33.57006 | 32.50736 | 37018 ft | 504 kts | 132° |
| 2026-05-01 09:07 | 33.52579 | 32.57262 | 37019 ft | 504 kts | 133° |
| 2026-05-01 09:08 | 33.48155 | 32.63775 | 37020 ft | 504 kts | 133° |
| 2026-05-01 09:08 | 33.43735 | 32.70279 | 37018 ft | 503 kts | 133° |
| 2026-05-01 09:09 | 33.39314 | 32.76773 | 37015 ft | 503 kts | 133° |
| 2026-05-01 09:09 | 33.34892 | 32.83256 | 37016 ft | 503 kts | 133° |
| 2026-05-01 09:10 | 33.30444 | 32.89771 | 36980 ft | 502 kts | 133° |
| 2026-05-01 09:10 | 33.28231 | 32.93000 | 36463 ft | 503 kts | 133° |
| 2026-05-01 09:10 | 33.25992 | 32.96262 | 35469 ft | 511 kts | 133° |
| 2026-05-01 09:11 | 33.23758 | 32.99515 | 34546 ft | 516 kts | 132° |
| 2026-05-01 09:11 | 33.21461 | 33.02853 | 33457 ft | 524 kts | 132° |
| 2026-05-01 09:11 | 33.19890 | 33.05134 | 32771 ft | 528 kts | 131° |
| 2026-05-01 09:11 | 33.17587 | 33.08539 | 31825 ft | 529 kts | 131° |
| 2026-05-01 09:12 | 33.15314 | 33.12014 | 30924 ft | 529 kts | 130° |
| 2026-05-01 09:12 | 33.13098 | 33.15482 | 29470 ft | 526 kts | 129° |
| 2026-05-01 09:12 | 33.10893 | 33.18961 | 28366 ft | 522 kts | 129° |
| 2026-05-01 09:12 | 33.08731 | 33.22364 | 28091 ft | 508 kts | 130° |
| 2026-05-01 09:13 | 33.06597 | 33.25693 | 27333 ft | 504 kts | 130° |
| 2026-05-01 09:13 | 33.04465 | 33.28977 | 26656 ft | 498 kts | 130° |
| 2026-05-01 09:13 | 33.02345 | 33.32218 | 25971 ft | 493 kts | 131° |
| 2026-05-01 09:13 | 33.00242 | 33.35425 | 25296 ft | 489 kts | 131° |
| 2026-05-01 09:14 | 32.98158 | 33.38605 | 24628 ft | 485 kts | 131° |
| 2026-05-01 09:14 | 32.96088 | 33.41768 | 23953 ft | 482 kts | 131° |
| 2026-05-01 09:14 | 32.94036 | 33.44898 | 23247 ft | 478 kts | 131° |
| 2026-05-01 09:14 | 32.92005 | 33.48001 | 22600 ft | 472 kts | 131° |
| 2026-05-01 09:15 | 32.90005 | 33.51060 | 22010 ft | 465 kts | 131° |
| 2026-05-01 09:15 | 32.88032 | 33.54079 | 21454 ft | 459 kts | 131° |
| 2026-05-01 09:15 | 32.86087 | 33.57049 | 20904 ft | 452 kts | 131° |
| 2026-05-01 09:15 | 32.84165 | 33.59977 | 20391 ft | 446 kts | 131° |
| 2026-05-01 09:16 | 32.82232 | 33.62822 | 19876 ft | 438 kts | 135° |
| 2026-05-01 09:16 | 32.80143 | 33.65430 | 19322 ft | 433 kts | 137° |
| 2026-05-01 09:16 | 32.78074 | 33.67985 | 18907 ft | 425 kts | 137° |
| 2026-05-01 09:17 | 32.73997 | 33.72986 | 17873 ft | 417 kts | 137° |
| 2026-05-01 09:17 | 32.71992 | 33.75448 | 17359 ft | 412 kts | 137° |
| 2026-05-01 09:17 | 32.68051 | 33.80302 | 16333 ft | 405 kts | 136° |
| 2026-05-01 09:18 | 32.66106 | 33.82695 | 15820 ft | 402 kts | 136° |
| 2026-05-01 09:18 | 32.62244 | 33.87442 | 14744 ft | 398 kts | 136° |
| 2026-05-01 09:19 | 32.58419 | 33.92135 | 13651 ft | 394 kts | 136° |
| 2026-05-01 09:19 | 32.56519 | 33.94463 | 13090 ft | 391 kts | 136° |
| 2026-05-01 09:19 | 32.54646 | 33.96770 | 12740 ft | 383 kts | 135° |
| 2026-05-01 09:20 | 32.51052 | 34.01261 | 12235 ft | 372 kts | 135° |
| 2026-05-01 09:20 | 32.47546 | 34.05661 | 11802 ft | 356 kts | 135° |
| 2026-05-01 09:21 | 32.44294 | 34.09781 | 11509 ft | 325 kts | 130° |
| 2026-05-01 09:21 | 32.43076 | 34.11977 | 11075 ft | 316 kts | 117° |
| 2026-05-01 09:21 | 32.41887 | 34.16880 | 10478 ft | 309 kts | 102° |
| 2026-05-01 09:22 | 32.41003 | 34.21828 | 10009 ft | 306 kts | 102° |
| 2026-05-01 09:22 | 32.40112 | 34.26726 | 9507 ft | 303 kts | 102° |
| 2026-05-01 09:23 | 32.39668 | 34.29164 | 9269 ft | 302 kts | 102° |
| 2026-05-01 09:23 | 32.38795 | 34.34005 | 8882 ft | 300 kts | 102° |
| 2026-05-01 09:24 | 32.37921 | 34.38820 | 8657 ft | 299 kts | 102° |
| 2026-05-01 09:24 | 32.37483 | 34.41220 | 8540 ft | 298 kts | 102° |
| 2026-05-01 09:24 | 32.36614 | 34.46001 | 8301 ft | 297 kts | 102° |
| 2026-05-01 09:25 | 32.35695 | 34.50752 | 8064 ft | 295 kts | 110° |
| 2026-05-01 09:25 | 32.33495 | 34.54747 | 7900 ft | 291 kts | 136° |
| 2026-05-01 09:26 | 32.32080 | 34.56468 | 7831 ft | 292 kts | 135° |
| 2026-05-01 09:26 | 32.29267 | 34.59920 | 7585 ft | 291 kts | 135° |
| 2026-05-01 09:26 | 32.27868 | 34.61639 | 7442 ft | 290 kts | 135° |
| 2026-05-01 09:27 | 32.25075 | 34.65067 | 7223 ft | 289 kts | 135° |
| 2026-05-01 09:27 | 32.23683 | 34.66775 | 7093 ft | 289 kts | 135° |
| 2026-05-01 09:27 | 32.22294 | 34.68479 | 6980 ft | 288 kts | 135° |
| 2026-05-01 09:28 | 32.20902 | 34.70188 | 6951 ft | 289 kts | 135° |
| 2026-05-01 09:28 | 32.19511 | 34.71893 | 6832 ft | 288 kts | 135° |
| 2026-05-01 09:28 | 32.18122 | 34.73594 | 6712 ft | 288 kts | 135° |
| 2026-05-01 09:28 | 32.16733 | 34.75291 | 6588 ft | 287 kts | 135° |
| 2026-05-01 09:29 | 32.14612 | 34.79251 | 6346 ft | 288 kts | 115° |
| 2026-05-01 09:29 | 32.13773 | 34.81398 | 6221 ft | 287 kts | 115° |
| 2026-05-01 09:30 | 32.12086 | 34.85670 | 5963 ft | 287 kts | 116° |
| 2026-05-01 09:30 | 32.11242 | 34.87795 | 6001 ft | 286 kts | 116° |
| 2026-05-01 09:30 | 32.09546 | 34.92061 | 6008 ft | 287 kts | 116° |
| 2026-05-01 09:31 | 32.08701 | 34.94192 | 6002 ft | 287 kts | 116° |
| 2026-05-01 09:31 | 32.07857 | 34.96324 | 6008 ft | 287 kts | 116° |
| 2026-05-01 09:31 | 32.06165 | 35.00584 | 6006 ft | 287 kts | 116° |
| 2026-05-01 09:32 | 32.05321 | 35.02708 | 6007 ft | 286 kts | 116° |
| 2026-05-01 09:32 | 32.03640 | 35.06954 | 5831 ft | 285 kts | 116° |
| 2026-05-01 09:32 | 32.02806 | 35.09066 | 5693 ft | 283 kts | 116° |
| 2026-05-01 09:33 | 32.01977 | 35.11165 | 5579 ft | 281 kts | 116° |
| 2026-05-01 09:33 | 32.01166 | 35.13215 | 5452 ft | 271 kts | 117° |
| 2026-05-01 09:33 | 31.98635 | 35.16075 | 5198 ft | 245 kts | 163° |
| 2026-05-01 09:34 | 31.96999 | 35.16429 | 5078 ft | 236 kts | 183° |
| 2026-05-01 09:34 | 31.95383 | 35.16393 | 4952 ft | 230 kts | 184° |
| 2026-05-01 09:34 | 31.92354 | 35.15535 | 4643 ft | 223 kts | 206° |
| 2026-05-01 09:35 | 31.91119 | 35.14550 | 4590 ft | 208 kts | 225° |
| 2026-05-01 09:35 | 31.89774 | 35.11652 | 4417 ft | 201 kts | 260° |
| 2026-05-01 09:35 | 31.89724 | 35.10013 | 4240 ft | 203 kts | 277° |
| 2026-05-01 09:36 | 31.90120 | 35.08398 | 3995 ft | 210 kts | 295° |
| 2026-05-01 09:36 | 31.90859 | 35.06930 | 3719 ft | 213 kts | 301° |
| 2026-05-01 09:36 | 31.91647 | 35.05427 | 3414 ft | 212 kts | 300° |
| 2026-05-01 09:36 | 31.92419 | 35.03952 | 3131 ft | 212 kts | 300° |
| 2026-05-01 09:37 | 31.93178 | 35.02498 | 2827 ft | 205 kts | 301° |
| 2026-05-01 09:37 | 31.94636 | 34.99708 | 2290 ft | 193 kts | 300° |
| 2026-05-01 09:37 | 31.95316 | 34.98406 | 1998 ft | 180 kts | 301° |
| 2026-05-01 09:38 | 31.96530 | 34.96076 | 1547 ft | 156 kts | 300° |
| 2026-05-01 09:38 | 31.97066 | 34.95048 | 1321 ft | 143 kts | 301° |
| 2026-05-01 09:38 | 31.97577 | 34.94067 | 1107 ft | 136 kts | 301° |
| 2026-05-01 09:39 | 31.98575 | 34.92174 | 796 ft | 136 kts | 302° |
| 2026-05-01 09:39 | 31.99067 | 34.91222 | 578 ft | 134 kts | 301° |
| 2026-05-01 09:39 | 31.99551 | 34.90293 | 323 ft | 133 kts | 302° |
| 2026-05-01 09:40 | 32.00031 | 34.89364 | 165 ft | 132 kts | 300° |
| 2026-05-01 09:40 | 32.00779 | 34.87902 | 118 ft | 59 kts | 303° |
| 2026-05-01 09:40 | 32.00911 | 34.87661 | 121 ft | 17 kts | 301° |
| 2026-05-01 09:41 | 32.00973 | 34.87542 | 118 ft | 17 kts | 302° |
| 2026-05-01 09:41 | 32.01061 | 34.87256 | 121 ft | 20 kts | 273° |
| 2026-05-01 09:41 | 32.01064 | 34.87095 | 120 ft | 17 kts | 271° |
| 2026-05-01 09:42 | 32.01002 | 34.87059 | 118 ft | 13 kts | 123° |
| 2026-05-01 09:42 | 32.00957 | 34.87147 | 119 ft | 12 kts | 121° |
| 2026-05-01 09:42 | 32.00878 | 34.87298 | 118 ft | 10 kts | 122° |
| 2026-05-01 09:43 | 32.00798 | 34.87457 | 117 ft | 15 kts | 121° |
| 2026-05-01 09:43 | 32.00739 | 34.87567 | 118 ft | 15 kts | 122° |
| 2026-05-01 09:43 | 32.00685 | 34.87670 | 115 ft | 14 kts | 121° |
| 2026-05-01 09:44 | 32.00564 | 34.87681 | 119 ft | 9 kts | 220° |
| 2026-05-01 09:44 | 32.00526 | 34.87614 | 118 ft | 12 kts | 237° |
| 2026-05-01 09:44 | 32.00494 | 34.87528 | 118 ft | 10 kts | 282° |
| 2026-05-01 09:45 | 32.00509 | 34.87486 | 119 ft | 2 kts | 287° |
| 2026-05-01 09:45 | 32.00510 | 34.87473 | 116 ft | 0 kts | 275° |